sensor_id;sensor_type;location;lat;lon;timestamp;pressure;altitude;pressure_sealevel;temperature;humidity
62420;BME280;48460;51.616;5.426;2022-11-14T00:01:16;101468.88;;;5.59;95.27
62420;BME280;48460;51.616;5.426;2022-11-14T00:03:41;101465.41;;;5.57;95.45
62420;BME280;48460;51.616;5.426;2022-11-14T00:06:07;101459.47;;;5.51;95.74
62420;BME280;48460;51.616;5.426;2022-11-14T00:08:33;101458.66;;;5.47;95.55
62420;BME280;48460;51.616;5.426;2022-11-14T00:10:59;101455.25;;;5.45;95.59
62420;BME280;48460;51.616;5.426;2022-11-14T00:13:25;101453.56;;;5.42;95.61
62420;BME280;48460;51.616;5.426;2022-11-14T00:15:51;101456.13;;;5.44;96.29
62420;BME280;48460;51.616;5.426;2022-11-14T00:18:21;101450.88;;;5.45;95.96
62420;BME280;48460;51.616;5.426;2022-11-14T00:20:48;101449.97;;;5.46;95.32
62420;BME280;48460;51.616;5.426;2022-11-14T00:23:14;101445.59;;;5.48;95.54
62420;BME280;48460;51.616;5.426;2022-11-14T00:25:39;101453.44;;;5.48;95.51
62420;BME280;48460;51.616;5.426;2022-11-14T00:28:05;101450.81;;;5.48;95.31
62420;BME280;48460;51.616;5.426;2022-11-14T00:30:30;101444.75;;;5.46;95.22
62420;BME280;48460;51.616;5.426;2022-11-14T00:32:55;101443.06;;;5.45;95.26
62420;BME280;48460;51.616;5.426;2022-11-14T00:35:21;101452.63;;;5.45;94.96
62420;BME280;48460;51.616;5.426;2022-11-14T00:37:46;101443.97;;;5.43;95.05
62420;BME280;48460;51.616;5.426;2022-11-14T00:40:12;101448.34;;;5.42;94.79
62420;BME280;48460;51.616;5.426;2022-11-14T00:42:38;101441.44;;;5.40;95.12
62420;BME280;48460;51.616;5.426;2022-11-14T00:45:04;101436.28;;;5.35;94.97
62420;BME280;48460;51.616;5.426;2022-11-14T00:47:30;101436.34;;;5.34;94.44
62420;BME280;48460;51.616;5.426;2022-11-14T00:49:55;101439.03;;;5.29;95.09
62420;BME280;48460;51.616;5.426;2022-11-14T00:52:20;101439.09;;;5.28;94.74
62420;BME280;48460;51.616;5.426;2022-11-14T00:54:46;101432.25;;;5.22;94.89
62420;BME280;48460;51.616;5.426;2022-11-14T00:57:11;101427.09;;;5.19;94.92
62420;BME280;48460;51.616;5.426;2022-11-14T00:59:36;101423.69;;;5.15;95.46
62420;BME280;48460;51.616;5.426;2022-11-14T01:02:02;101424.66;;;5.10;95.20
62420;BME280;48460;51.616;5.426;2022-11-14T01:04:27;101417.75;;;5.07;95.68
62420;BME280;48460;51.616;5.426;2022-11-14T01:06:52;101412.59;;;5.04;95.45
62420;BME280;48460;51.616;5.426;2022-11-14T01:09:18;101411.78;;;5.02;95.65
62420;BME280;48460;51.616;5.426;2022-11-14T01:11:43;101410.97;;;5.00;95.50
62420;BME280;48460;51.616;5.426;2022-11-14T01:14:09;101404.06;;;4.96;96.04
62420;BME280;48460;51.616;5.426;2022-11-14T01:16:34;101405.03;;;4.92;96.27
62420;BME280;48460;51.616;5.426;2022-11-14T01:19:01;101400.75;;;4.89;96.51
62420;BME280;48460;51.616;5.426;2022-11-14T01:21:26;101396.47;;;4.85;96.67
62420;BME280;48460;51.616;5.426;2022-11-14T01:23:51;101395.66;;;4.83;96.80
62420;BME280;48460;51.616;5.426;2022-11-14T01:26:17;101393.94;;;4.80;96.79
62420;BME280;48460;51.616;5.426;2022-11-14T01:28:42;101374.88;;;4.78;96.54
62420;BME280;48460;51.616;5.426;2022-11-14T01:31:08;101370.59;;;4.76;97.01
62420;BME280;48460;51.616;5.426;2022-11-14T01:33:34;101372.38;;;4.72;97.66
62420;BME280;48460;51.616;5.426;2022-11-14T01:35:59;101365.44;;;4.73;97.22
62420;BME280;48460;51.616;5.426;2022-11-14T01:38:25;101352.47;;;4.70;97.94
62420;BME280;48460;51.616;5.426;2022-11-14T01:40:50;101345.53;;;4.70;97.31
62420;BME280;48460;51.616;5.426;2022-11-14T01:48:16;101336.75;;;4.74;95.13
62420;BME280;48460;51.616;5.426;2022-11-14T01:50:44;101340.28;;;4.72;95.59
62420;BME280;48460;51.616;5.426;2022-11-14T01:53:09;101349.06;;;4.68;98.28
62420;BME280;48460;51.616;5.426;2022-11-14T01:55:34;101354.31;;;4.65;98.04
62420;BME280;48460;51.616;5.426;2022-11-14T01:58:00;101342.22;;;4.61;98.23
62420;BME280;48460;51.616;5.426;2022-11-14T02:00:25;101349.19;;;4.60;99.00
62420;BME280;48460;51.616;5.426;2022-11-14T02:02:51;101339.63;;;4.61;98.56
62420;BME280;48460;51.616;5.426;2022-11-14T02:05:17;101342.22;;;4.61;99.05
62420;BME280;48460;51.616;5.426;2022-11-14T02:07:43;101346.56;;;4.60;99.16
62420;BME280;48460;51.616;5.426;2022-11-14T02:10:15;101339.69;;;4.57;99.49
62420;BME280;48460;51.616;5.426;2022-11-14T02:12:41;101349.25;;;4.57;99.76
62420;BME280;48460;51.616;5.426;2022-11-14T02:15:08;101348.47;;;4.52;99.49
62420;BME280;48460;51.616;5.426;2022-11-14T02:17:33;101343.38;;;4.46;100.00
62420;BME280;48460;51.616;5.426;2022-11-14T02:22:27;101326.88;;;4.45;100.00
62420;BME280;48460;51.616;5.426;2022-11-14T02:24:53;101329.53;;;4.44;100.00
62420;BME280;48460;51.616;5.426;2022-11-14T02:27:18;101320.91;;;4.40;99.72
62420;BME280;48460;51.616;5.426;2022-11-14T02:29:44;101332.28;;;4.36;99.92
62420;BME280;48460;51.616;5.426;2022-11-14T02:32:09;101327.22;;;4.28;99.84
62420;BME280;48460;51.616;5.426;2022-11-14T02:34:35;101333.34;;;4.26;100.00
62420;BME280;48460;51.616;5.426;2022-11-14T02:37:00;101330.84;;;4.18;100.00
62420;BME280;48460;51.616;5.426;2022-11-14T02:39:25;101331.81;;;4.13;100.00
62420;BME280;48460;51.616;5.426;2022-11-14T02:41:51;101327.56;;;4.07;100.00
62420;BME280;48460;51.616;5.426;2022-11-14T02:44:17;101326.78;;;4.03;99.73
62420;BME280;48460;51.616;5.426;2022-11-14T02:46:42;101333.84;;;3.97;100.00
62420;BME280;48460;51.616;5.426;2022-11-14T02:49:08;101327.84;;;3.93;100.00
62420;BME280;48460;51.616;5.426;2022-11-14T02:51:33;101321.78;;;3.91;100.00
62420;BME280;48460;51.616;5.426;2022-11-14T02:53:58;101313.97;;;3.91;100.00
62420;BME280;48460;51.616;5.426;2022-11-14T02:56:24;101319.19;;;3.89;100.00
62420;BME280;48460;51.616;5.426;2022-11-14T02:58:49;101314.88;;;3.88;100.00
62420;BME280;48460;51.616;5.426;2022-11-14T03:01:14;101320.97;;;3.87;100.00
62420;BME280;48460;51.616;5.426;2022-11-14T03:03:40;101325.34;;;3.87;100.00
62420;BME280;48460;51.616;5.426;2022-11-14T03:06:05;101312.34;;;3.85;100.00
62420;BME280;48460;51.616;5.426;2022-11-14T03:08:31;101316.69;;;3.85;100.00
62420;BME280;48460;51.616;5.426;2022-11-14T03:11:06;101313.28;;;3.80;100.00
62420;BME280;48460;51.616;5.426;2022-11-14T03:13:31;101302.94;;;3.77;100.00
62420;BME280;48460;51.616;5.426;2022-11-14T03:15:57;101297.78;;;3.74;100.00
62420;BME280;48460;51.616;5.426;2022-11-14T03:18:22;101314.31;;;3.71;100.00
62420;BME280;48460;51.616;5.426;2022-11-14T03:20:48;101300.47;;;3.69;100.00
62420;BME280;48460;51.616;5.426;2022-11-14T03:23:13;101297.03;;;3.67;100.00
62420;BME280;48460;51.616;5.426;2022-11-14T03:25:39;101296.19;;;3.65;100.00
62420;BME280;48460;51.616;5.426;2022-11-14T03:28:04;101297.09;;;3.64;100.00
62420;BME280;48460;51.616;5.426;2022-11-14T03:30:30;101301.44;;;3.63;100.00
62420;BME280;48460;51.616;5.426;2022-11-14T03:32:55;101296.22;;;3.63;100.00
62420;BME280;48460;51.616;5.426;2022-11-14T03:35:21;101291.09;;;3.60;100.00
62420;BME280;48460;51.616;5.426;2022-11-14T03:37:47;101291.94;;;3.59;100.00
62420;BME280;48460;51.616;5.426;2022-11-14T03:40:12;101290.25;;;3.57;100.00
62420;BME280;48460;51.616;5.426;2022-11-14T03:42:37;101284.22;;;3.55;100.00
62420;BME280;48460;51.616;5.426;2022-11-14T03:45:03;101287.72;;;3.52;100.00
62420;BME280;48460;51.616;5.426;2022-11-14T03:47:28;101289.53;;;3.49;100.00
62420;BME280;48460;51.616;5.426;2022-11-14T03:49:54;101286.88;;;3.50;100.00
62420;BME280;48460;51.616;5.426;2022-11-14T03:52:19;101295.63;;;3.46;100.00
62420;BME280;48460;51.616;5.426;2022-11-14T03:54:45;101291.38;;;3.40;100.00
62420;BME280;48460;51.616;5.426;2022-11-14T03:57:10;101287.06;;;3.39;100.00
62420;BME280;48460;51.616;5.426;2022-11-14T03:59:35;101286.22;;;3.37;100.00
62420;BME280;48460;51.616;5.426;2022-11-14T04:02:01;101281.03;;;3.36;100.00
62420;BME280;48460;51.616;5.426;2022-11-14T04:04:28;101270.69;;;3.34;100.00
62420;BME280;48460;51.616;5.426;2022-11-14T04:06:53;101269.81;;;3.34;100.00
62420;BME280;48460;51.616;5.426;2022-11-14T04:09:18;101269.81;;;3.34;100.00
62420;BME280;48460;51.616;5.426;2022-11-14T04:11:44;101269.84;;;3.32;100.00
62420;BME280;48460;51.616;5.426;2022-11-14T04:14:09;101267.31;;;3.28;100.00
62420;BME280;48460;51.616;5.426;2022-11-14T04:16:35;101269.03;;;3.29;100.00
62420;BME280;48460;51.616;5.426;2022-11-14T04:19:00;101256.09;;;3.24;100.00
62420;BME280;48460;51.616;5.426;2022-11-14T04:21:26;101257.81;;;3.25;100.00
62420;BME280;48460;51.616;5.426;2022-11-14T04:23:51;101257.88;;;3.22;100.00
62420;BME280;48460;51.616;5.426;2022-11-14T04:26:16;101254.44;;;3.20;100.00
62420;BME280;48460;51.616;5.426;2022-11-14T04:28:42;101253.56;;;3.19;100.00
62420;BME280;48460;51.616;5.426;2022-11-14T04:31:07;101247.53;;;3.17;100.00
62420;BME280;48460;51.616;5.426;2022-11-14T04:33:32;101241.53;;;3.15;100.00
62420;BME280;48460;51.616;5.426;2022-11-14T04:35:58;101246.72;;;3.14;100.00
62420;BME280;48460;51.616;5.426;2022-11-14T04:38:23;101245.03;;;3.11;100.00
62420;BME280;48460;51.616;5.426;2022-11-14T04:40:52;101249.38;;;3.11;100.00
62420;BME280;48460;51.616;5.426;2022-11-14T04:43:20;101243.38;;;3.07;100.00
62420;BME280;48460;51.616;5.426;2022-11-14T04:45:46;101244.22;;;3.08;100.00
62420;BME280;48460;51.616;5.426;2022-11-14T04:48:11;101237.28;;;3.08;100.00
62420;BME280;48460;51.616;5.426;2022-11-14T04:50:37;101233.00;;;3.04;100.00
62420;BME280;48460;51.616;5.426;2022-11-14T04:53:03;101236.50;;;3.02;100.00
62420;BME280;48460;51.616;5.426;2022-11-14T04:55:28;101236.50;;;3.02;100.00
62420;BME280;48460;51.616;5.426;2022-11-14T04:57:55;101241.66;;;3.03;100.00
62420;BME280;48460;51.616;5.426;2022-11-14T05:00:21;101233.97;;;2.97;100.00
62420;BME280;48460;51.616;5.426;2022-11-14T05:02:46;101234.00;;;2.95;100.00
62420;BME280;48460;51.616;5.426;2022-11-14T05:05:12;101231.41;;;2.94;100.00
62420;BME280;48460;51.616;5.426;2022-11-14T05:07:37;101230.59;;;2.92;100.00
62420;BME280;48460;51.616;5.426;2022-11-14T05:10:04;101231.47;;;2.91;100.00
62420;BME280;48460;51.616;5.426;2022-11-14T05:12:30;101228.09;;;2.86;100.00
62420;BME280;48460;51.616;5.426;2022-11-14T05:14:55;101229.84;;;2.84;100.00
62420;BME280;48460;51.616;5.426;2022-11-14T05:17:21;101229.84;;;2.84;100.00
62420;BME280;48460;51.616;5.426;2022-11-14T05:19:46;101221.19;;;2.82;100.00
62420;BME280;48460;51.616;5.426;2022-11-14T05:22:12;101216.91;;;2.79;100.00
62420;BME280;48460;51.616;5.426;2022-11-14T05:24:37;101214.34;;;2.76;100.00
62420;BME280;48460;51.616;5.426;2022-11-14T05:27:02;101209.19;;;2.74;100.00
62420;BME280;48460;51.616;5.426;2022-11-14T05:29:28;101206.59;;;2.73;100.00
62420;BME280;48460;51.616;5.426;2022-11-14T05:31:53;101206.59;;;2.73;100.00
62420;BME280;48460;51.616;5.426;2022-11-14T05:34:18;101207.50;;;2.72;100.00
62420;BME280;48460;51.616;5.426;2022-11-14T05:36:44;101207.50;;;2.70;100.00
62420;BME280;48460;51.616;5.426;2022-11-14T05:39:09;101210.13;;;2.69;100.00
62420;BME280;48460;51.616;5.426;2022-11-14T05:41:35;101208.44;;;2.68;100.00
62420;BME280;48460;51.616;5.426;2022-11-14T05:44:03;101204.97;;;2.66;100.00
62420;BME280;48460;51.616;5.426;2022-11-14T05:46:28;101202.38;;;2.64;100.00
62420;BME280;48460;51.616;5.426;2022-11-14T05:48:53;101199.78;;;2.66;100.00
62420;BME280;48460;51.616;5.426;2022-11-14T05:51:19;101195.50;;;2.63;100.00
62420;BME280;48460;51.616;5.426;2022-11-14T05:53:44;101191.19;;;2.62;100.00
62420;BME280;48460;51.616;5.426;2022-11-14T05:56:11;101187.75;;;2.62;100.00
62420;BME280;48460;51.616;5.426;2022-11-14T05:58:37;101188.59;;;2.61;100.00
62420;BME280;48460;51.616;5.426;2022-11-14T06:01:03;101198.13;;;2.62;100.00
62420;BME280;48460;51.616;5.426;2022-11-14T06:03:31;101194.69;;;2.60;100.00
62420;BME280;48460;51.616;5.426;2022-11-14T06:05:59;101201.56;;;2.61;100.00
62420;BME280;48460;51.616;5.426;2022-11-14T06:08:27;101198.13;;;2.60;100.00
62420;BME280;48460;51.616;5.426;2022-11-14T06:10:52;101193.84;;;2.58;100.00
62420;BME280;48460;51.616;5.426;2022-11-14T06:13:18;101197.28;;;2.58;100.00
62420;BME280;48460;51.616;5.426;2022-11-14T06:15:43;101200.78;;;2.56;100.00
62420;BME280;48460;51.616;5.426;2022-11-14T06:18:10;101194.72;;;2.55;100.00
62420;BME280;48460;51.616;5.426;2022-11-14T06:20:35;101192.16;;;2.54;100.00
62420;BME280;48460;51.616;5.426;2022-11-14T06:23:01;101202.56;;;2.52;100.00
62420;BME280;48460;51.616;5.426;2022-11-14T06:25:26;101197.41;;;2.49;100.00
62420;BME280;48460;51.616;5.426;2022-11-14T06:27:51;101199.16;;;2.50;100.00
62420;BME280;48460;51.616;5.426;2022-11-14T06:30:17;101205.22;;;2.46;100.00
62420;BME280;48460;51.616;5.426;2022-11-14T06:32:43;101200.06;;;2.43;100.00
62420;BME280;48460;51.616;5.426;2022-11-14T06:35:08;101211.34;;;2.42;100.00
62420;BME280;48460;51.616;5.426;2022-11-14T06:37:36;101205.34;;;2.38;100.00
62420;BME280;48460;51.616;5.426;2022-11-14T06:40:02;101202.75;;;2.37;100.00
62420;BME280;48460;51.616;5.426;2022-11-14T06:42:28;101197.59;;;2.34;100.00
62420;BME280;48460;51.616;5.426;2022-11-14T06:44:53;101196.75;;;2.32;100.00
62420;BME280;48460;51.616;5.426;2022-11-14T06:47:18;101193.34;;;2.30;100.00
62420;BME280;48460;51.616;5.426;2022-11-14T06:49:44;101196.78;;;2.28;100.00
62420;BME280;48460;51.616;5.426;2022-11-14T06:52:09;101195.94;;;2.30;100.00
62420;BME280;48460;51.616;5.426;2022-11-14T06:54:35;101198.53;;;2.30;100.00
62420;BME280;48460;51.616;5.426;2022-11-14T06:57:00;101202.88;;;2.27;100.00
62420;BME280;48460;51.616;5.426;2022-11-14T06:59:25;101207.16;;;2.28;100.00
62420;BME280;48460;51.616;5.426;2022-11-14T07:01:51;101210.66;;;2.26;100.00
62420;BME280;48460;51.616;5.426;2022-11-14T07:04:16;101215.00;;;2.25;100.00
62420;BME280;48460;51.616;5.426;2022-11-14T07:06:42;101213.28;;;2.24;100.00
62420;BME280;48460;51.616;5.426;2022-11-14T07:09:09;101215.03;;;2.22;100.00
62420;BME280;48460;51.616;5.426;2022-11-14T07:11:34;101216.78;;;2.23;100.00
62420;BME280;48460;51.616;5.426;2022-11-14T07:14:01;101218.47;;;2.24;100.00
62420;BME280;48460;51.616;5.426;2022-11-14T07:16:34;101219.31;;;2.26;100.00
62420;BME280;48460;51.616;5.426;2022-11-14T07:19:03;101220.19;;;2.25;100.00
62420;BME280;48460;51.616;5.426;2022-11-14T07:21:29;101217.63;;;2.22;100.00
62420;BME280;48460;51.616;5.426;2022-11-14T07:23:56;101212.50;;;2.18;100.00
62420;BME280;48460;51.616;5.426;2022-11-14T07:26:21;101213.44;;;2.12;100.00
62420;BME280;48460;51.616;5.426;2022-11-14T07:28:47;101220.41;;;2.09;100.00
62420;BME280;48460;51.616;5.426;2022-11-14T07:31:15;101223.88;;;2.04;100.00
62420;BME280;48460;51.616;5.426;2022-11-14T07:33:42;101209.16;;;2.05;100.00
62420;BME280;48460;51.616;5.426;2022-11-14T07:36:09;101205.66;;;2.11;100.00
62420;BME280;48460;51.616;5.426;2022-11-14T07:38:35;101205.63;;;2.14;100.00
62420;BME280;48460;51.616;5.426;2022-11-14T07:43:28;101203.78;;;2.23;100.00
62420;BME280;48460;51.616;5.426;2022-11-14T07:45:58;101202.00;;;2.27;100.00
62420;BME280;48460;51.616;5.426;2022-11-14T07:48:24;101198.53;;;2.30;100.00
62420;BME280;48460;51.616;5.426;2022-11-14T07:50:49;101197.59;;;2.34;100.00
62420;BME280;48460;51.616;5.426;2022-11-14T07:53:15;101194.97;;;2.38;100.00
62420;BME280;48460;51.616;5.426;2022-11-14T07:55:42;101189.69;;;2.43;100.00
62420;BME280;48460;51.616;5.426;2022-11-14T07:58:08;101192.25;;;2.47;100.00
62420;BME280;48460;51.616;5.426;2022-11-14T08:00:34;101191.31;;;2.53;100.00
62420;BME280;48460;51.616;5.426;2022-11-14T08:02:59;101187.75;;;2.59;100.00
62420;BME280;48460;51.616;5.426;2022-11-14T08:05:25;101193.75;;;2.65;100.00
62420;BME280;48460;51.616;5.426;2022-11-14T08:07:50;101182.41;;;2.71;100.00
62420;BME280;48460;51.616;5.426;2022-11-14T08:10:16;101186.53;;;2.86;100.00
62420;BME280;48460;51.616;5.426;2022-11-14T08:12:43;101178.00;;;3.33;100.00
62420;BME280;48460;51.616;5.426;2022-11-14T08:15:10;101177.22;;;3.76;100.00
62420;BME280;48460;51.616;5.426;2022-11-14T08:17:36;101173.41;;;3.96;100.00
62420;BME280;48460;51.616;5.426;2022-11-14T08:20:03;101174.75;;;4.15;100.00
62420;BME280;48460;51.616;5.426;2022-11-14T08:22:29;101173.81;;;4.18;100.00
62420;BME280;48460;51.616;5.426;2022-11-14T08:24:55;101161.72;;;4.15;100.00
62420;BME280;48460;51.616;5.426;2022-11-14T08:27:21;101163.59;;;4.08;100.00
62420;BME280;48460;51.616;5.426;2022-11-14T08:29:46;101162.69;;;4.11;100.00
62420;BME280;48460;51.616;5.426;2022-11-14T08:32:12;101163.50;;;4.13;100.00
62420;BME280;48460;51.616;5.426;2022-11-14T08:34:37;101165.13;;;4.19;100.00
62420;BME280;48460;51.616;5.426;2022-11-14T08:37:02;101159.78;;;4.26;100.00
62420;BME280;48460;51.616;5.426;2022-11-14T08:39:29;101154.56;;;4.25;100.00
62420;BME280;48460;51.616;5.426;2022-11-14T08:41:55;101157.19;;;4.25;100.00
62420;BME280;48460;51.616;5.426;2022-11-14T08:44:20;101159.66;;;4.31;100.00
62420;BME280;48460;51.616;5.426;2022-11-14T08:46:46;101152.63;;;4.36;100.00
62420;BME280;48460;51.616;5.426;2022-11-14T08:49:11;101146.41;;;4.42;100.00
62420;BME280;48460;51.616;5.426;2022-11-14T08:51:37;101146.34;;;4.45;100.00
62420;BME280;48460;51.616;5.426;2022-11-14T08:54:08;101151.47;;;4.49;100.00
62420;BME280;48460;51.616;5.426;2022-11-14T08:56:34;101154.88;;;4.53;100.00
62420;BME280;48460;51.616;5.426;2022-11-14T08:59:02;101154.78;;;4.56;100.00
62420;BME280;48460;51.616;5.426;2022-11-14T09:01:28;101159.16;;;4.55;100.00
62420;BME280;48460;51.616;5.426;2022-11-14T09:03:55;101148.63;;;4.60;100.00
62420;BME280;48460;51.616;5.426;2022-11-14T09:06:20;101152.84;;;4.66;100.00
62420;BME280;48460;51.616;5.426;2022-11-14T09:08:46;101145.78;;;4.71;100.00
62420;BME280;48460;51.616;5.426;2022-11-14T09:11:11;101150.94;;;4.72;100.00
62420;BME280;48460;51.616;5.426;2022-11-14T09:13:37;101142.19;;;4.75;100.00
62420;BME280;48460;51.616;5.426;2022-11-14T09:16:04;101142.13;;;4.79;100.00
62420;BME280;48460;51.616;5.426;2022-11-14T09:18:30;101134.03;;;4.90;100.00
62420;BME280;48460;51.616;5.426;2022-11-14T09:21:03;101128.56;;;5.01;100.00
62420;BME280;48460;51.616;5.426;2022-11-14T09:23:29;101125.81;;;5.07;100.00
62420;BME280;48460;51.616;5.426;2022-11-14T09:25:57;101132.66;;;5.11;100.00
62420;BME280;48460;51.616;5.426;2022-11-14T09:28:23;101138.59;;;5.18;100.00
62420;BME280;48460;51.616;5.426;2022-11-14T09:30:50;101133.25;;;5.22;100.00
62420;BME280;48460;51.616;5.426;2022-11-14T09:33:15;101131.41;;;5.26;100.00
62420;BME280;48460;51.616;5.426;2022-11-14T09:35:41;101123.44;;;5.32;100.00
62420;BME280;48460;51.616;5.426;2022-11-14T09:38:11;101124.16;;;5.37;100.00
62420;BME280;48460;51.616;5.426;2022-11-14T09:46:38;101108.91;;;5.56;100.00
62420;BME280;48460;51.616;5.426;2022-11-14T09:49:10;101109.59;;;5.63;100.00
62420;BME280;48460;51.616;5.426;2022-11-14T09:51:48;101110.19;;;5.72;100.00
62420;BME280;48460;51.616;5.426;2022-11-14T09:54:23;101116.09;;;5.79;100.00
62420;BME280;48460;51.616;5.426;2022-11-14T09:56:50;101114.13;;;5.87;100.00
62420;BME280;48460;51.616;5.426;2022-11-14T09:59:16;101125.16;;;5.99;100.00
62420;BME280;48460;51.616;5.426;2022-11-14T10:02:02;101127.53;;;6.06;100.00
62420;BME280;48460;51.616;5.426;2022-11-14T10:26:30;101097.94;;;7.68;98.89
62420;BME280;48460;51.616;5.426;2022-11-14T10:36:48;101094.03;;;11.06;82.32
62420;BME280;48460;51.616;5.426;2022-11-14T10:39:33;101088.00;;;11.89;77.34
62420;BME280;48460;51.616;5.426;2022-11-14T10:42:10;101102.06;;;12.37;75.08
62420;BME280;48460;51.616;5.426;2022-11-14T10:44:42;101096.81;;;12.69;70.77
62420;BME280;48460;51.616;5.426;2022-11-14T10:47:17;101097.31;;;13.06;69.83
62420;BME280;48460;51.616;5.426;2022-11-14T10:49:45;101091.00;;;13.38;66.69
62420;BME280;48460;51.616;5.426;2022-11-14T10:52:15;101094.19;;;13.59;67.04
62420;BME280;48460;51.616;5.426;2022-11-14T10:54:50;101096.81;;;13.74;66.10
62420;BME280;48460;51.616;5.426;2022-11-14T10:57:21;101092.44;;;14.16;63.65
62420;BME280;48460;51.616;5.426;2022-11-14T10:59:48;101087.50;;;14.38;61.71
62420;BME280;48460;51.616;5.426;2022-11-14T11:02:14;101086.97;;;14.19;61.92
62420;BME280;48460;51.616;5.426;2022-11-14T11:04:42;101084.22;;;14.34;61.42
62420;BME280;48460;51.616;5.426;2022-11-14T11:09:42;101068.66;;;14.84;60.06
62420;BME280;48460;51.616;5.426;2022-11-14T11:12:48;101062.03;;;15.04;58.06
62420;BME280;48460;51.616;5.426;2022-11-14T11:15:18;101061.88;;;14.80;59.18
62420;BME280;48460;51.616;5.426;2022-11-14T11:18:08;101057.66;;;14.36;62.42
62420;BME280;48460;51.616;5.426;2022-11-14T11:21:00;101046.97;;;15.04;61.72
62420;BME280;48460;51.616;5.426;2022-11-14T11:23:27;101044.28;;;15.44;58.06
62420;BME280;48460;51.616;5.426;2022-11-14T11:25:59;101042.59;;;15.56;57.56
62420;BME280;48460;51.616;5.426;2022-11-14T11:28:30;101037.91;;;16.22;56.36
62420;BME280;48460;51.616;5.426;2022-11-14T11:31:01;101034.84;;;15.91;54.52
62420;BME280;48460;51.616;5.426;2022-11-14T11:33:28;101033.59;;;16.08;55.95
62420;BME280;48460;51.616;5.426;2022-11-14T11:35:57;101027.81;;;16.03;54.98
62420;BME280;48460;51.616;5.426;2022-11-14T11:38:28;101031.03;;;16.20;54.32
62420;BME280;48460;51.616;5.426;2022-11-14T11:43:51;101019.94;;;16.74;53.69
62420;BME280;48460;51.616;5.426;2022-11-14T11:46:29;101028.56;;;16.77;53.24
62420;BME280;48460;51.616;5.426;2022-11-14T11:49:19;101019.28;;;16.59;54.13
62420;BME280;48460;51.616;5.426;2022-11-14T11:51:52;101025.63;;;16.69;52.62
62420;BME280;48460;51.616;5.426;2022-11-14T11:54:25;101024.59;;;16.35;53.09
62420;BME280;48460;51.616;5.426;2022-11-14T11:56:53;101020.69;;;16.04;54.13
62420;BME280;48460;51.616;5.426;2022-11-14T11:59:44;101030.50;;;15.26;56.41
62420;BME280;48460;51.616;5.426;2022-11-14T12:02:22;101024.88;;;14.24;58.42
62420;BME280;48460;51.616;5.426;2022-11-14T12:04:54;101039.19;;;13.21;62.07
62420;BME280;48460;51.616;5.426;2022-11-14T12:07:28;101043.38;;;12.49;65.02
62420;BME280;48460;51.616;5.426;2022-11-14T12:09:57;101048.31;;;11.92;67.51
62420;BME280;48460;51.616;5.426;2022-11-14T12:15:41;101042.84;;;10.94;72.86
62420;BME280;48460;51.616;5.426;2022-11-14T12:18:43;101044.09;;;10.69;73.90
62420;BME280;48460;51.616;5.426;2022-11-14T12:24:32;101057.88;;;10.00;78.17
62420;BME280;48460;51.616;5.426;2022-11-14T12:27:39;101049.25;;;9.78;79.54
62420;BME280;48460;51.616;5.426;2022-11-14T12:30:17;101048.66;;;9.52;81.76
62420;BME280;48460;51.616;5.426;2022-11-14T12:35:21;101034.94;;;9.46;83.65
62420;BME280;48460;51.616;5.426;2022-11-14T12:37:48;101045.47;;;9.65;80.79
62420;BME280;48460;51.616;5.426;2022-11-14T12:40:32;101052.44;;;9.66;82.56
62420;BME280;48460;51.616;5.426;2022-11-14T12:42:59;101050.66;;;9.66;83.32
62420;BME280;48460;51.616;5.426;2022-11-14T12:50:52;101042.34;;;9.36;85.12
62420;BME280;48460;51.616;5.426;2022-11-14T12:56:24;101040.22;;;9.25;86.02
62420;BME280;48460;51.616;5.426;2022-11-14T13:01:48;101026.16;;;9.26;86.86
62420;BME280;48460;51.616;5.426;2022-11-14T13:04:43;101013.75;;;9.30;86.21
62420;BME280;48460;51.616;5.426;2022-11-14T13:10:13;100995.16;;;9.74;85.38
62420;BME280;48460;51.616;5.426;2022-11-14T13:13:02;100984.06;;;10.95;82.19
62420;BME280;48460;51.616;5.426;2022-11-14T13:15:56;100974.25;;;12.28;74.52
62420;BME280;48460;51.616;5.426;2022-11-14T13:21:33;100967.84;;;13.93;66.52
62420;BME280;48460;51.616;5.426;2022-11-14T13:24:15;100953.47;;;14.51;64.12
62420;BME280;48460;51.616;5.426;2022-11-14T13:26:43;100950.91;;;15.15;61.17
62420;BME280;48460;51.616;5.426;2022-11-14T13:32:10;100942.47;;;16.45;56.42
62420;BME280;48460;51.616;5.426;2022-11-14T13:34:48;100936.59;;;16.52;55.36
62420;BME280;48460;51.616;5.426;2022-11-14T13:42:52;100898.84;;;16.71;54.47
62420;BME280;48460;51.616;5.426;2022-11-14T13:50:58;100898.81;;;16.49;52.46
62420;BME280;48460;51.616;5.426;2022-11-14T13:53:28;100908.53;;;15.65;54.31
62420;BME280;48460;51.616;5.426;2022-11-14T13:58:45;100917.84;;;15.83;55.37
62420;BME280;48460;51.616;5.426;2022-11-14T14:04:12;100916.81;;;15.60;56.08
62420;BME280;48460;51.616;5.426;2022-11-14T14:07:10;100909.91;;;15.58;56.54
62420;BME280;48460;51.616;5.426;2022-11-14T14:09:52;100913.72;;;15.66;56.23
62420;BME280;48460;51.616;5.426;2022-11-14T14:15:33;100911.00;;;15.68;56.40
62420;BME280;48460;51.616;5.426;2022-11-14T14:20:45;100911.78;;;15.19;56.56
62420;BME280;48460;51.616;5.426;2022-11-14T14:23:20;100909.38;;;14.90;56.93
62420;BME280;48460;51.616;5.426;2022-11-14T14:28:51;100899.34;;;14.43;58.98
62420;BME280;48460;51.616;5.426;2022-11-14T14:31:20;100900.00;;;14.46;58.60
62420;BME280;48460;51.616;5.426;2022-11-14T14:33:51;100897.19;;;14.22;58.94
62420;BME280;48460;51.616;5.426;2022-11-14T14:36:26;100902.28;;;14.25;59.63
62420;BME280;48460;51.616;5.426;2022-11-14T14:39:14;100913.16;;;13.94;60.66
62420;BME280;48460;51.616;5.426;2022-11-14T14:41:40;100911.66;;;13.62;61.17
62420;BME280;48460;51.616;5.426;2022-11-14T14:44:18;100914.31;;;13.48;62.14